»·PEaware :: DAL6603 KLAX-KSFO

DAL6603 :: KLAX-KSFO

FLIGHT INFORMATION

Flight Status: Arrived
Operator:
Delta Air Lines
More flights by this operator :: More flights under this callsign
Pilot: Richard S. (14671)
Aircraft: BOEING 737-800
(B738)
More flights by this aircraft type
Origin: KLAX Los Angeles Intl
United States
Destination: KSFO San Francisco Intl
United States
More flights between these airports :: More routes between these airports
Route: +VTU7 RZS STOKD SERFR SERFR3 EPICK EDDYY SERFR3
File this flight plan on PilotEdge
Remarks:
Altitude:
(Current/Filed)
32,000ft
Speed:
(Current/Filed)
457kts
Departed: 07-Oct-18 12:26 PM
Arrived: 07-Oct-18 01:21 PM
Distance/Time
Traveled:
293nm/0:55
Distance/Time
To Go:
Arrived

Flight Plot

Page will automatically refresh every two minutes.

Flight plan parsing failed; only flown route is shown


Map Options




Map Legend


Flown Route
Filed Route
Departure Airport
Arrival Airport
Navaid (VOR, NDB)
Fix

Horizontal Profiles

Position Reports

Time Latitude Longitude Heading Altitude Ground
Speed
07-Oct-18 11:43 33.940033 -118.402315 38 110ft 0kts
07-Oct-18 11:44 33.940033 -118.402315 38 110ft 0kts
07-Oct-18 11:45 33.940033 -118.402315 38 110ft 0kts
07-Oct-18 11:46 33.940033 -118.402315 38 110ft 0kts
07-Oct-18 11:47 33.940033 -118.402315 38 110ft 0kts
07-Oct-18 11:48 33.940033 -118.402315 38 110ft 0kts
07-Oct-18 11:49 33.940033 -118.402315 38 110ft 0kts
07-Oct-18 11:50 33.940033 -118.402315 38 110ft 0kts
07-Oct-18 11:51 33.940033 -118.402315 38 110ft 0kts
07-Oct-18 11:52 33.940033 -118.402315 38 110ft 0kts
07-Oct-18 11:53 33.940033 -118.402315 38 110ft 0kts
07-Oct-18 11:54 33.940033 -118.402315 38 110ft 0kts
07-Oct-18 11:55 33.940033 -118.402315 38 110ft 0kts
07-Oct-18 11:56 33.940033 -118.402315 38 110ft 0kts
07-Oct-18 11:57 33.940033 -118.402315 38 110ft 0kts
07-Oct-18 11:58 33.940033 -118.402315 38 110ft 0kts
07-Oct-18 11:59 33.940033 -118.402315 38 110ft 0kts
07-Oct-18 12:00 33.940033 -118.402315 38 110ft 0kts
07-Oct-18 12:01 33.940033 -118.402315 38 110ft 0kts
07-Oct-18 12:02 33.940033 -118.402315 38 110ft 0kts
07-Oct-18 12:03 33.940033 -118.402315 38 110ft 0kts
07-Oct-18 12:04 33.940033 -118.402315 38 110ft 0kts
07-Oct-18 12:05 33.940033 -118.402315 38 110ft 0kts
07-Oct-18 12:06 33.940033 -118.402315 38 110ft 0kts
07-Oct-18 12:07 33.940033 -118.402315 38 110ft 0kts
07-Oct-18 12:08 33.940033 -118.402315 38 110ft 0kts
07-Oct-18 12:09 33.940033 -118.402315 38 110ft 0kts
07-Oct-18 12:10 33.940033 -118.402315 38 110ft 0kts
07-Oct-18 12:11 33.940033 -118.402315 38 110ft 0kts
07-Oct-18 12:12 33.940033 -118.402315 38 110ft 0kts
07-Oct-18 12:13 33.940033 -118.402315 38 110ft 0kts
07-Oct-18 12:14 33.939778 -118.402425 21 110ft 2kts
07-Oct-18 12:15 33.939317 -118.402655 74 110ft 0kts
07-Oct-18 12:16 33.939310 -118.402761 82 110ft 0kts
07-Oct-18 12:17 33.939310 -118.402761 82 110ft 0kts
07-Oct-18 12:18 33.939310 -118.402761 82 110ft 0kts
07-Oct-18 12:19 33.939310 -118.402761 82 110ft 0kts
07-Oct-18 12:20 33.939329 -118.402591 82 110ft 5kts
07-Oct-18 12:21 33.939191 -118.400469 140 110ft 12kts
07-Oct-18 12:22 33.939373 -118.394146 83 110ft 29kts
07-Oct-18 12:23 33.940304 -118.384882 83 110ft 26kts
07-Oct-18 12:24 33.940686 -118.380746 102 110ft 0kts
07-Oct-18 12:25 33.940686 -118.380746 102 110ft 0kts
07-Oct-18 12:26 33.940686 -118.380746 102 110ft 0kts
07-Oct-18 12:27 33.940666 -118.380662 109 110ft 4kts
07-Oct-18 12:28 33.938037 -118.397711 263 126ft 180kts
07-Oct-18 12:29 33.933033 -118.468820 269 2996ft 244kts
07-Oct-18 12:30 33.943833 -118.544274 292 5828ft 254kts
07-Oct-18 12:31 33.971023 -118.623887 292 8352ft 284kts
07-Oct-18 12:32 33.997982 -118.703011 292 9075ft 274kts
07-Oct-18 12:33 34.027495 -118.789888 292 11237ft 323kts
07-Oct-18 12:34 34.062005 -118.891794 292 13341ft 352kts
07-Oct-18 12:35 34.096453 -118.993987 292 14593ft 364kts
07-Oct-18 12:36 34.139180 -119.095381 303 17061ft 378kts
07-Oct-18 12:37 34.195599 -119.195835 303 19367ft 392kts
07-Oct-18 12:38 34.254089 -119.302162 303 21527ft 405kts
07-Oct-18 12:39 34.311465 -119.406847 303 24502ft 387kts
07-Oct-18 12:40 34.368211 -119.510710 303 26287ft 396kts
07-Oct-18 12:41 34.425455 -119.615818 303 27844ft 406kts
07-Oct-18 12:42 34.485029 -119.725557 303 29306ft 416kts
07-Oct-18 12:43 34.559994 -119.824634 318 31034ft 414kts
07-Oct-18 12:44 34.641152 -119.912275 318 32247ft 420kts
07-Oct-18 12:45 34.726791 -120.004636 318 32275ft 448kts
07-Oct-18 12:46 34.812400 -120.096916 318 32265ft 455kts
07-Oct-18 12:47 34.902448 -120.193914 318 32264ft 455kts
07-Oct-18 12:48 34.992956 -120.291331 318 32264ft 455kts
07-Oct-18 12:49 35.083717 -120.388942 318 32264ft 455kts
07-Oct-18 12:50 35.156687 -120.467364 318 32264ft 455kts
07-Oct-18 12:51 35.262808 -120.581328 319 32264ft 455kts
07-Oct-18 12:52 35.353218 -120.678341 318 32264ft 455kts
07-Oct-18 12:53 35.442807 -120.774408 318 32266ft 455kts
07-Oct-18 12:54 35.535008 -120.866677 323 32262ft 455kts
07-Oct-18 12:55 35.615658 -120.941441 322 32264ft 455kts
07-Oct-18 12:56 35.727940 -121.046430 322 32264ft 455kts
07-Oct-18 12:57 35.808509 -121.121766 322 32264ft 455kts
07-Oct-18 12:58 35.901180 -121.208383 323 32263ft 424kts
07-Oct-18 12:59 35.991102 -121.292377 323 32264ft 423kts
07-Oct-18 13:00 36.080719 -121.374987 327 31565ft 412kts
07-Oct-18 13:01 36.166476 -121.441374 328 29583ft 399kts
07-Oct-18 13:02 36.254389 -121.509962 328 27556ft 386kts
07-Oct-18 13:03 36.337548 -121.575068 328 25639ft 375kts
07-Oct-18 13:04 36.417288 -121.637659 328 23804ft 364kts
07-Oct-18 13:05 36.497368 -121.700685 327 21966ft 353kts
07-Oct-18 13:06 36.576297 -121.763021 327 19894ft 350kts
07-Oct-18 13:07 36.653065 -121.823819 327 18202ft 343kts
07-Oct-18 13:08 36.731844 -121.885978 331 16497ft 351kts
07-Oct-18 13:09 36.818845 -121.916217 347 14885ft 342kts
07-Oct-18 13:10 36.904539 -121.939836 347 13318ft 335kts
07-Oct-18 13:11 36.988606 -121.966850 342 11777ft 326kts
07-Oct-18 13:12 37.068901 -121.998628 342 10170ft 300kts
07-Oct-18 13:13 37.137865 -122.025662 342 9122ft 265kts
07-Oct-18 13:14 37.203602 -122.051426 342 8517ft 268kts
07-Oct-18 13:15 37.271016 -122.077828 342 7758ft 283kts
07-Oct-18 13:16 37.341320 -122.104820 344 5789ft 278kts
07-Oct-18 13:17 37.409043 -122.128843 344 4652ft 251kts
07-Oct-18 13:18 37.470549 -122.150681 344 3838ft 239kts
07-Oct-18 13:19 37.527653 -122.182313 316 3011ft 237kts
07-Oct-18 13:20 37.563189 -122.243481 298 2078ft 228kts
07-Oct-18 13:21 37.590103 -122.306951 298 955ft 192kts
07-Oct-18 13:22 37.610756 -122.356103 298 92ft 135kts
07-Oct-18 13:23 37.618958 -122.378052 268 27ft 0kts
07-Oct-18 13:24 37.618942 -122.379920 276 30ft 18kts
07-Oct-18 13:25 37.620555 -122.385276 223 31ft 13kts
07-Oct-18 13:26 37.618923 -122.385946 171 31ft 0kts
07-Oct-18 13:27 37.618923 -122.385946 171 31ft 0kts
07-Oct-18 13:28 37.618923 -122.385946 171 31ft 0kts
07-Oct-18 13:29 37.618923 -122.385946 171 31ft 0kts
07-Oct-18 13:30 37.618923 -122.385946 171 31ft 0kts
07-Oct-18 13:31 37.618923 -122.385946 171 31ft 0kts

Navigation Log

Ident Type
Flight plan parsing failed, navigation log unavailable